Airfield :
LOGIN :

Register | Disclaimer

   EN    FR    IT 

 










Legend :    VFR   Marginal VFR   IFR   Intensive IFR   Very Intensive IFR
Visi :
Ceiling :
>= 8 km
>= 3000ft
5 to 8 km
1000 to 3000 ft
1500m to 5 km
500 to 1000 ft
800 to 1500m
200 to 500 ft
< 800m
< 200 ft
Symbols :   Thunderstorms  Fog  Heavy snow  Heavy precipitations  Wind > 20 kt
SIGMETs :     Misc.  Thunderstorms  Icing  Turbulence  Mountain Waves  Volcanic Ashes






- Airport Elevation : 659 ft
- IATA code : LYN


LFLY - Lyon Bron

CURRENT METAR :
  • 210330Z AUTO VRB02KT CAVOK M00/M02 Q1038 TEMPO 4000 BR

EXPIRED METARs :
  • 210300Z AUTO 00000KT CAVOK M00/M03 Q1038 NOSIG
  • 210230Z AUTO 00000KT CAVOK M00/M03 Q1038 NOSIG
  • 210200Z AUTO VRB02KT CAVOK 00/M03 Q1038 NOSIG
  • 210130Z AUTO 00000KT CAVOK 00/M03 Q1038 NOSIG
  • 210100Z AUTO 33002KT CAVOK 01/M03 Q1038 NOSIG

TAF TAF LFLY
Valid from the 21 at 00:00 until the 22 at 00:00 UTC


202300Z 2100/2124 34003KT CAVOK
PROB40 2105/2109 4000 BR
ATIS : +33 4 72 15 87 96



MET'MAP, your aeronautical weather chart ! - Copyright ORBIFLY December 2007 - Disclaimer

ORBIFLY MET'MAP TEAM :

Programming & Development : Alexandra Zaïnal
Concept & original design : Baudouin d'Aumeries
Assistance for programming : Marc-Olivier Méhu
Technical & hardware support : Manuel Goepfert

Contact : metmap@orbifly.com




SOURCES & CREDITS :

   NOAA